Bow Fagus — LAUE4 — position and weather

sailwx.info

Track history (hours):
 
Tides and Currents Weather Stations Pressure Air Temp Water Temp Dewpoint Dewpoint Depression Visibility Wind Speed Wind Dir Waves Ship Positions

Bow Fagus

Last reported at 2017-Dec-14 00:22 UTC. Time now 2017-Dec-16 07:22 UTC.
Position N 41°19' E 002°11'.

Length 184 m; draft 10 m.

Type: Ship (hazmat cat B). MMSI: 258924000.

Date/timePositionNaut miles runAvg speedWind from/ knotsBaromVisibWave heightAir tempDewpointWater temp
2017-Dec-14 00:22N 41°19' E 002°11'1 1.8
2017-Dec-14 00:00N 41°18' E 002°12'33412.1
2017-Dec-12 20:29N 38°34' E 008°31'28712.5
2017-Dec-11 21:30N 36°35' E 014°00'612.8
2017-Dec-11 21:00N 36°33' E 014°08'612.1
2017-Dec-11 20:30N 36°31' E 014°15'612.1
2017-Dec-11 20:00N 36°29' E 014°22'612.4
2017-Dec-11 19:30N 36°27' E 014°29'612.2
2017-Dec-11 19:00N 36°25' E 014°37'612.1
2017-Dec-11 18:30N 36°24' E 014°44'  
Track history (hours):
 
Tides and Currents Weather Stations Pressure Air Temp Water Temp Dewpoint Dewpoint Depression Visibility Wind Speed Wind Dir Waves Ship Positions

Bow Fagus

Last reported at 2017-Dec-14 00:22 UTC. Time now 2017-Dec-16 07:22 UTC.
Position N 41°19' E 002°11'.

Length 184 m; draft 10 m.

Type: Ship (hazmat cat B). MMSI: 258924000.

Date/timePositionNaut miles runAvg speedWind from/ knotsBaromVisibWave heightAir tempDewpointWater temp
2017-Dec-14 00:22N 41°19' E 002°11'1 1.8
2017-Dec-14 00:00N 41°18' E 002°12'33412.1
2017-Dec-12 20:29N 38°34' E 008°31'28712.5
2017-Dec-11 21:30N 36°35' E 014°00'612.8
2017-Dec-11 21:00N 36°33' E 014°08'612.1
2017-Dec-11 20:30N 36°31' E 014°15'612.1
2017-Dec-11 20:00N 36°29' E 014°22'612.4
2017-Dec-11 19:30N 36°27' E 014°29'612.2
2017-Dec-11 19:00N 36°25' E 014°37'612.1
2017-Dec-11 18:30N 36°24' E 014°44'  

Dump ship's entire track history